Time;durP1;ratioP1;P1;durP2;ratioP2;P2;SDS_P1;SDS_P2;PMS_P1;PMS_P2;Temp;Humidity;BMP_temperature;BMP_pressure;BME280_temperature;BME280_humidity;BME280_pressure;Samples;Min_cycle;Max_cycle;Signal;HPM_P1;HPM_P2
2022/12/27 00:01:32;;;;;;;;;;;;;;;-6.27;49.26;97695.47;6299114;28;19920;-66
2022/12/27 00:04:37;;;;;;;;;;;;;;;-6.24;49.28;97695.50;6299101;28;19920;-68
2022/12/27 00:07:41;;;;;;;;;;;;;;;-6.17;48.81;97698.19;6299010;28;19920;-68
2022/12/27 00:10:45;;;;;;;;;;;;;;;-6.10;49.16;97697.41;6298819;28;19980;-68
2022/12/27 00:13:50;;;;;;;;;;;;;;;-6.08;49.00;97700.03;6298215;28;19935;-68
2022/12/27 00:16:54;;;;;;;;;;;;;;;-6.04;48.85;97698.34;6298484;28;19924;-68
2022/12/27 00:19:59;;;;;;;;;;;;;;;-6.02;48.64;97697.53;6298967;28;19921;-67
2022/12/27 00:23:03;;;;;;;;;;;;;;;-5.94;48.87;97695.94;6298831;28;20415;-67
2022/12/27 00:26:09;;;;;;;;;;;;;;;-5.97;48.80;97690.78;6298296;28;19963;-67
2022/12/27 00:29:13;;;;;;;;;;;;;;;-5.94;48.79;97688.25;6297998;28;20400;-67
2022/12/27 00:32:14;;;;;;;;;;;;;;;-5.91;48.96;97688.25;6297735;28;19920;-67
2022/12/27 00:35:15;;;;;;;;;;;;;;;-5.93;48.70;97691.66;6298177;28;20393;-67
2022/12/27 00:38:16;;;;;;;;;;;;;;;-5.91;48.73;97688.25;6297791;28;20317;-68
2022/12/27 00:41:20;;;;;;;;;;;;;;;-5.86;48.86;97693.41;6297987;28;19920;-68
2022/12/27 00:44:24;;;;;;;;;;;;;;;-5.88;48.84;97693.41;6298079;28;20290;-68
2022/12/27 00:47:25;;;;;;;;;;;;;;;-5.87;49.05;97692.56;6297524;28;20007;-68
2022/12/27 00:50:28;;;;;;;;;;;;;;;-5.84;48.66;97680.63;6297758;28;19920;-67
2022/12/27 00:53:32;;;;;;;;;;;;;;;-5.80;48.97;97673.03;6297906;28;19920;-67
2022/12/27 00:56:33;;;;;;;;;;;;;;;-5.81;48.74;97675.53;6297166;28;19942;-68
2022/12/27 00:59:34;;;;;;;;;;;;;;;-5.82;48.85;97668.72;6297163;28;19920;-68
2022/12/27 01:02:35;;;;;;;;;;;;;;;-5.81;48.89;97662.72;6297631;28;19920;-67
2022/12/27 01:05:38;;;;;;;;;;;;;;;-5.70;48.98;97666.28;6297485;28;19920;-68
2022/12/27 01:08:43;;;;;;;;;;;;;;;-5.71;49.02;97656.88;6297110;28;19927;-67
2022/12/27 01:11:47;;;;;;;;;;;;;;;-5.72;49.26;97671.41;6297234;28;19928;-67
2022/12/27 01:14:48;;;;;;;;;;;;;;;-5.71;49.12;97672.25;6296919;28;19920;-67
2022/12/27 01:17:50;;;;;;;;;;;;;;;-5.71;48.96;97667.13;6297138;28;19920;-67
2022/12/27 01:20:52;;;;;;;;;;;;;;;-5.64;48.69;97669.78;6297109;28;19920;-67
2022/12/27 01:23:54;;;;;;;;;;;;;;;-5.62;48.94;97666.38;6297091;28;20378;-67
2022/12/27 01:26:55;;;;;;;;;;;;;;;-5.61;49.04;97674.06;6296538;28;19927;-67
2022/12/27 01:29:59;;;;;;;;;;;;;;;-5.60;49.47;97675.81;6295682;28;20318;-68
2022/12/27 01:33:04;;;;;;;;;;;;;;;-5.59;49.73;97681.81;6297083;28;20441;-67
2022/12/27 01:36:07;;;;;;;;;;;;;;;-5.56;49.86;97676.69;6296630;28;19921;-68
2022/12/27 01:39:10;;;;;;;;;;;;;;;-5.54;49.57;97675.03;6296674;28;20011;-68
2022/12/27 01:45:39;;;;;;;;;;;;;;;-5.55;50.18;97666.44;6296069;28;19946;-67
2022/12/27 01:48:40;;;;;;;;;;;;;;;-5.54;50.22;97663.06;6296382;28;20400;-68
2022/12/27 01:51:45;;;;;;;;;;;;;;;-5.43;50.14;97658.91;6296652;28;19916;-68
2022/12/27 01:54:49;;;;;;;;;;;;;;;-5.42;50.53;97659.75;6296438;28;19924;-68
2022/12/27 01:57:54;;;;;;;;;;;;;;;-5.43;50.42;97655.50;6295807;28;19926;-67
2022/12/27 02:00:56;;;;;;;;;;;;;;;-5.44;50.79;97661.44;6295702;28;20018;-68
2022/12/27 02:04:00;;;;;;;;;;;;;;;-5.44;50.76;97653.75;6295739;28;19932;-68
2022/12/27 02:07:04;;;;;;;;;;;;;;;-5.39;50.74;97661.50;6296027;28;19943;-68
2022/12/27 02:10:05;;;;;;;;;;;;;;;-5.39;50.66;97651.25;6296083;28;19920;-68
2022/12/27 02:13:06;;;;;;;;;;;;;;;-5.41;50.73;97646.09;6296071;28;19943;-68
2022/12/27 02:16:15;;;;;;;;;;;;;;;-5.41;51.47;97656.34;6295397;28;19920;-68
2022/12/27 02:19:27;;;;;;;;;;;;;;;-5.43;51.47;97653.78;6295913;28;19920;-68
2022/12/27 02:26:18;;;;;;;;;;;;;;;-5.33;51.26;97646.16;6296051;28;19923;-67
2022/12/27 02:29:41;;;;;;;;;;;;;;;-5.30;51.73;97646.19;6294874;28;20313;-68
2022/12/27 02:32:54;;;;;;;;;;;;;;;-5.32;51.10;97650.44;6294588;28;19916;-68
2022/12/27 02:36:00;;;;;;;;;;;;;;;-5.26;51.42;97641.13;6295238;28;19920;-68
2022/12/27 02:39:05;;;;;;;;;;;;;;;-5.21;51.85;97636.03;6295218;28;19927;-67
2022/12/27 02:53:02;;;;;;;;;;;;;;;-5.24;51.88;97649.72;6227835;28;19920;-68
2022/12/27 03:03:19;;;;;;;;;;;;;;;-5.27;52.08;97659.06;6299668;28;19920;-67
2022/12/27 03:03:23;;;;;;;;;;;;;;;-5.26;52.08;97660.78;6299380;28;19924;-68
2022/12/27 03:06:42;;;;;;;;;;;;;;;-5.22;52.28;97654.84;6299778;28;19920;-68
2022/12/27 03:16:54;;;;;;;;;;;;;;;-5.20;52.54;97658.28;6300043;28;20336;-68
2022/12/27 03:26:45;;;;;;;;;;;;;;;-5.17;52.60;97658.31;6299426;28;19920;-68
2022/12/27 03:33:12;;;;;;;;;;;;;;;-5.11;52.77;97660.94;6299426;28;19920;-67
2022/12/27 03:40:07;;;;;;;;;;;;;;;-5.06;53.01;97674.66;6299514;28;19920;-68
2022/12/27 03:43:11;;;;;;;;;;;;;;;-5.04;52.92;97675.56;6299065;28;19921;-68
2022/12/27 03:46:45;;;;;;;;;;;;;;;-4.94;53.19;97675.63;6299294;28;20066;-68
2022/12/27 03:49:48;;;;;;;;;;;;;;;-5.02;53.78;97676.41;6297823;28;20022;-68
2022/12/27 03:52:56;;;;;;;;;;;;;;;-5.05;53.75;97691.78;6299053;28;20387;-68
2022/12/27 03:56:00;;;;;;;;;;;;;;;-5.02;54.13;97680.69;6298064;28;19931;-68
2022/12/27 03:59:08;;;;;;;;;;;;;;;-5.14;54.60;97686.56;6298960;28;20395;-69
2022/12/27 04:02:09;;;;;;;;;;;;;;;-5.24;54.73;97684.72;6298532;28;20317;-68
2022/12/27 04:05:14;;;;;;;;;;;;;;;-5.27;54.73;97679.56;6297168;28;19920;-68
2022/12/27 04:35:00;;;;;;;;;;;;;;;-5.35;58.75;97697.47;6298218;28;19920;-68
2022/12/27 04:38:06;;;;;;;;;;;;;;;-5.38;58.67;97694.00;6297869;28;19920;-67
2022/12/27 04:54:55;;;;;;;;;;;;;;;-5.31;59.02;97703.50;6296981;28;19951;-68
2022/12/27 04:57:57;;;;;;;;;;;;;;;-5.30;59.47;97692.38;6297066;28;20293;-68
2022/12/27 05:04:47;;;;;;;;;;;;;;;-5.33;59.51;97684.66;6269475;28;19920;-68
2022/12/27 05:14:35;;;;;;;;;;;;;;;-5.15;60.26;97679.72;6296807;28;19920;-67
2022/12/27 05:17:38;;;;;;;;;;;;;;;-5.14;59.65;97691.69;6296426;28;19920;-68
2022/12/27 05:20:46;;;;;;;;;;;;;;;-5.00;60.02;97681.56;6296831;28;19932;-68
2022/12/27 05:27:08;;;;;;;;;;;;;;;-4.87;60.31;97690.22;6296220;28;19921;-68
2022/12/27 05:30:10;;;;;;;;;;;;;;;-4.69;60.06;97687.84;6296238;28;19943;-67
2022/12/27 05:33:11;;;;;;;;;;;;;;;-4.66;59.80;97684.44;6296262;28;19920;-68
2022/12/27 05:36:12;;;;;;;;;;;;;;;-4.51;59.84;97677.69;6295003;28;19974;-68
2022/12/27 05:39:15;;;;;;;;;;;;;;;-4.31;59.54;97670.13;6296566;28;20377;-68
2022/12/27 05:42:19;;;;;;;;;;;;;;;-4.16;59.27;97674.50;6296539;28;19920;-67
2022/12/27 05:45:22;;;;;;;;;;;;;;;-3.89;59.39;97680.66;6296369;28;19916;-68
2022/12/27 05:48:26;;;;;;;;;;;;;;;-3.50;58.17;97681.69;6296344;28;19920;-68
2022/12/27 05:51:30;;;;;;;;;;;;;;;-3.19;57.97;97686.06;6296488;28;19924;-68
2022/12/27 05:54:31;;;;;;;;;;;;;;;-2.88;57.86;97683.53;6295869;28;19916;-68
2022/12/27 05:57:34;;;;;;;;;;;;;;;-2.68;57.03;97680.13;6296071;28;19920;-68
2022/12/27 06:00:38;;;;;;;;;;;;;;;-2.60;56.67;97681.00;6295723;28;19960;-69
2022/12/27 06:03:43;;;;;;;;;;;;;;;-2.63;56.76;97688.69;6294494;28;20046;-69
2022/12/27 06:06:46;;;;;;;;;;;;;;;-2.65;56.97;97687.84;6295362;28;20428;-68
2022/12/27 06:09:49;;;;;;;;;;;;;;;-2.63;57.32;97696.41;6295901;28;19920;-69
2022/12/27 06:12:50;;;;;;;;;;;;;;;-2.71;57.52;97693.88;6295705;28;19931;-68
2022/12/27 06:15:56;;;;;;;;;;;;;;;-2.73;57.03;97711.88;6295937;28;19924;-68
2022/12/27 06:19:00;;;;;;;;;;;;;;;-2.72;57.62;97697.28;6295764;28;20386;-67
2022/12/27 06:22:09;;;;;;;;;;;;;;;-2.65;57.57;97706.75;6295649;28;20278;-68
2022/12/27 06:25:13;;;;;;;;;;;;;;;-2.69;57.04;97704.16;6295825;28;19920;-69
2022/12/27 06:28:17;;;;;;;;;;;;;;;-2.88;57.41;97701.56;6294690;28;19928;-68
2022/12/27 06:31:19;;;;;;;;;;;;;;;-2.97;57.52;97702.41;6295530;28;19924;-68
2022/12/27 06:34:21;;;;;;;;;;;;;;;-3.00;57.76;97706.69;6295345;28;19920;-68
2022/12/27 06:37:22;;;;;;;;;;;;;;;-3.00;57.35;97707.56;6295300;28;19926;-67
2022/12/27 06:40:23;;;;;;;;;;;;;;;-2.95;57.74;97710.97;6295153;28;19986;-68
2022/12/27 06:43:24;;;;;;;;;;;;;;;-3.00;58.00;97699.84;6295692;28;19927;-68
2022/12/27 06:46:29;;;;;;;;;;;;;;;-3.06;57.90;97696.38;6295870;28;20747;-68
2022/12/27 06:49:33;;;;;;;;;;;;;;;-3.11;57.90;97692.91;6294736;28;19916;-68
2022/12/27 06:52:37;;;;;;;;;;;;;;;-3.08;58.06;97685.22;6294281;28;19920;-68
2022/12/27 06:55:40;;;;;;;;;;;;;;;-2.98;58.11;97689.53;6295722;28;19920;-68
2022/12/27 06:58:45;;;;;;;;;;;;;;;-2.98;57.97;97684.38;6295259;28;19920;-69
2022/12/27 07:01:48;;;;;;;;;;;;;;;-2.85;57.41;97690.41;6295553;28;20397;-68
2022/12/27 07:04:49;;;;;;;;;;;;;;;-2.78;57.74;97687.81;6295006;28;20014;-68
2022/12/27 07:07:53;;;;;;;;;;;;;;;-2.75;57.53;97698.13;6295009;28;19920;-68
2022/12/27 07:11:05;;;;;;;;;;;;;;;-2.86;57.40;97691.25;6294526;28;20396;-68
2022/12/27 07:14:10;;;;;;;;;;;;;;;-2.96;57.50;97683.53;6295371;28;19927;-69
2022/12/27 07:17:11;;;;;;;;;;;;;;;-2.99;57.89;97680.09;6294951;28;19920;-68
2022/12/27 07:20:14;;;;;;;;;;;;;;;-3.10;58.08;97674.91;6295132;28;19924;-69
2022/12/27 07:23:18;;;;;;;;;;;;;;;-3.17;57.99;97679.22;6295312;28;19920;-68
2022/12/27 07:26:21;;;;;;;;;;;;;;;-3.21;58.16;97676.59;6294624;28;19916;-68
2022/12/27 07:29:24;;;;;;;;;;;;;;;-3.25;58.01;97678.31;6294339;28;20037;-68
2022/12/27 07:32:27;;;;;;;;;;;;;;;-3.28;58.04;97680.03;6295160;28;19920;-69
2022/12/27 07:35:30;;;;;;;;;;;;;;;-3.24;58.15;97674.03;6294613;28;19931;-69
2022/12/27 07:38:32;;;;;;;;;;;;;;;-3.11;57.98;97673.22;6294651;28;19950;-69
2022/12/27 07:41:33;;;;;;;;;;;;;;;-3.09;57.98;97675.78;6298830;28;19928;-69
2022/12/27 07:44:35;;;;;;;;;;;;;;;-3.08;58.38;97678.38;6299160;28;20566;-69
2022/12/27 07:47:36;;;;;;;;;;;;;;;-3.09;57.96;97671.47;6298762;28;19940;-68
2022/12/27 07:50:39;;;;;;;;;;;;;;;-3.02;58.17;97674.94;6298672;28;19921;-68
2022/12/27 07:53:42;;;;;;;;;;;;;;;-3.07;58.66;97681.78;6299130;28;20297;-68
2022/12/27 07:56:44;;;;;;;;;;;;;;;-3.12;58.09;97675.78;6298594;28;19927;-69
2022/12/27 07:59:47;;;;;;;;;;;;;;;-3.19;58.78;97675.75;6298924;28;19920;-68
2022/12/27 08:02:54;;;;;;;;;;;;;;;-3.24;58.61;97669.75;6298783;28;20015;-68
2022/12/27 08:05:59;;;;;;;;;;;;;;;-3.24;58.59;97662.00;6297813;28;19924;-68
2022/12/27 08:09:03;;;;;;;;;;;;;;;-3.21;58.80;97664.59;6298224;28;19927;-69
2022/12/27 08:12:06;;;;;;;;;;;;;;;-3.21;59.05;97666.31;6298290;28;20336;-67
2022/12/27 08:15:08;;;;;;;;;;;;;;;-3.33;59.19;97666.28;6298040;28;19916;-68
2022/12/27 08:18:11;;;;;;;;;;;;;;;-3.30;59.06;97663.72;6297783;28;19920;-68
2022/12/27 08:21:15;;;;;;;;;;;;;;;-3.29;59.03;97668.88;6298433;28;19920;-69
2022/12/27 08:24:16;;;;;;;;;;;;;;;-3.14;59.42;97674.91;6297034;28;20348;-69
2022/12/27 08:27:21;;;;;;;;;;;;;;;-3.12;58.89;97670.63;6297964;28;20383;-67
2022/12/27 08:30:24;;;;;;;;;;;;;;;-3.19;58.95;97665.47;6297608;28;20278;-68
2022/12/27 08:33:28;;;;;;;;;;;;;;;-3.09;59.20;97660.31;6297862;28;19920;-68
2022/12/27 08:36:31;;;;;;;;;;;;;;;-3.14;59.13;97656.88;6297697;28;20404;-67
2022/12/27 08:39:32;;;;;;;;;;;;;;;-3.20;59.40;97660.28;6297546;28;19927;-67
2022/12/27 08:42:36;;;;;;;;;;;;;;;-3.22;59.37;97655.16;6297637;28;19920;-68
2022/12/27 08:45:42;;;;;;;;;;;;;;;-3.19;59.40;97655.16;6297885;28;19920;-68
2022/12/27 08:48:43;;;;;;;;;;;;;;;-3.22;59.04;97657.75;6297475;28;19924;-69
2022/12/27 08:51:48;;;;;;;;;;;;;;;-3.19;59.17;97660.31;6296996;28;19920;-69
2022/12/27 08:54:52;;;;;;;;;;;;;;;-3.31;59.42;97650.00;6297953;28;19920;-68
2022/12/27 08:57:59;;;;;;;;;;;;;;;-3.23;59.41;97643.16;6296988;28;19924;-68
2022/12/27 09:01:07;;;;;;;;;;;;;;;-3.29;59.46;97640.56;6297064;28;20274;-68
2022/12/27 09:04:08;;;;;;;;;;;;;;;-3.14;59.07;97647.47;6296390;28;19927;-68
2022/12/27 09:07:09;;;;;;;;;;;;;;;-3.22;59.54;97637.16;6297152;28;20007;-68
2022/12/27 09:10:11;;;;;;;;;;;;;;;-3.21;59.53;97641.44;6296939;28;19927;-68
2022/12/27 09:13:12;;;;;;;;;;;;;;;-3.30;59.55;97638.00;6295845;28;19927;-69
2022/12/27 09:16:14;;;;;;;;;;;;;;;-3.31;60.00;97638.81;6296498;28;19920;-67
2022/12/27 09:19:17;;;;;;;;;;;;;;;-3.25;59.86;97650.00;6296256;28;20282;-68
2022/12/27 09:22:20;;;;;;;;;;;;;;;-3.24;60.07;97646.56;6296066;28;19920;-68
2022/12/27 09:25:24;;;;;;;;;;;;;;;-3.24;60.23;97646.56;6296129;28;19943;-68
2022/12/27 09:28:27;;;;;;;;;;;;;;;-3.26;60.20;97648.28;6296037;28;20022;-69
2022/12/27 09:31:31;;;;;;;;;;;;;;;-3.36;60.09;97649.13;6296538;28;19920;-69
2022/12/27 09:34:32;;;;;;;;;;;;;;;-3.27;60.33;97656.88;6296207;28;19921;-68
2022/12/27 09:37:35;;;;;;;;;;;;;;;-3.36;60.26;97651.69;6296367;28;19920;-68
2022/12/27 09:40:38;;;;;;;;;;;;;;;-3.31;60.41;97655.16;6295973;28;19927;-68
2022/12/27 09:43:52;;;;;;;;;;;;;;;-3.26;60.61;97658.56;6296755;28;20386;-68
2022/12/27 09:47:05;;;;;;;;;;;;;;;-3.35;60.24;97653.41;6296481;28;19969;-69
2022/12/27 09:50:15;;;;;;;;;;;;;;;-3.34;60.60;97655.16;6296445;28;19978;-68
2022/12/27 09:53:29;;;;;;;;;;;;;;;-3.29;60.38;97653.41;6296256;28;19970;-68
2022/12/27 09:56:32;;;;;;;;;;;;;;;-3.24;60.06;97651.72;6295880;28;20297;-68
2022/12/27 09:59:43;;;;;;;;;;;;;;;-3.26;60.26;97648.28;6295970;28;19920;-69
2022/12/27 10:02:47;;;;;;;;;;;;;;;-3.27;60.70;97646.56;6295224;28;20020;-68
2022/12/27 10:06:22;;;;;;;;;;;;;;;-3.24;60.36;97662.00;6296195;28;19924;-68
2022/12/27 10:09:29;;;;;;;;;;;;;;;-3.29;60.45;97653.41;6281401;28;20402;-69
2022/12/27 10:12:52;;;;;;;;;;;;;;;-3.34;60.49;97660.28;6296249;28;20437;-69
2022/12/27 10:16:14;;;;;;;;;;;;;;;-3.33;60.43;97646.56;6294488;28;19920;-68
2022/12/27 10:19:35;;;;;;;;;;;;;;;-3.26;60.74;97653.44;6295615;28;19920;-69
2022/12/27 10:22:51;;;;;;;;;;;;;;;-3.38;60.65;97658.56;6295924;28;20344;-69
2022/12/27 10:25:57;;;;;;;;;;;;;;;-3.36;60.65;97662.00;6295367;28;20006;-68
2022/12/27 10:29:10;;;;;;;;;;;;;;;-3.55;60.78;97661.06;6295801;28;19920;-68
2022/12/27 10:32:14;;;;;;;;;;;;;;;-3.63;60.91;97661.03;6295958;28;20382;-69
2022/12/27 10:35:21;;;;;;;;;;;;;;;-3.54;61.11;97661.91;6295793;28;19920;-68
2022/12/27 10:38:23;;;;;;;;;;;;;;;-3.62;60.89;97655.06;6294878;28;19920;-69
2022/12/27 10:41:27;;;;;;;;;;;;;;;-3.68;61.06;97660.19;6295289;28;20309;-68
2022/12/27 10:44:28;;;;;;;;;;;;;;;-3.68;61.26;97664.44;6295100;28;19970;-68
2022/12/27 10:47:34;;;;;;;;;;;;;;;-3.72;61.25;97668.72;6295579;28;19927;-68
2022/12/27 10:50:37;;;;;;;;;;;;;;;-3.81;61.40;97671.25;6295238;28;19974;-68
2022/12/27 10:53:39;;;;;;;;;;;;;;;-3.80;61.76;97670.41;6294733;28;20570;-68
2022/12/27 10:56:43;;;;;;;;;;;;;;;-3.79;61.50;97669.56;6294641;28;20289;-68
2022/12/27 10:59:44;;;;;;;;;;;;;;;-3.84;61.73;97663.53;6295210;28;19920;-69
2022/12/27 11:02:52;;;;;;;;;;;;;;;-3.87;62.05;97663.53;6294866;28;19924;-69
2022/12/27 11:06:02;;;;;;;;;;;;;;;-3.95;62.00;97665.19;6295116;28;19920;-68
2022/12/27 11:09:23;;;;;;;;;;;;;;;-4.01;62.05;97660.03;6294560;28;19927;-68
2022/12/27 11:12:31;;;;;;;;;;;;;;;-3.93;62.59;97663.50;6294598;28;20290;-67
2022/12/27 11:15:37;;;;;;;;;;;;;;;-4.02;62.50;97669.41;6298371;28;20066;-68
2022/12/27 11:18:49;;;;;;;;;;;;;;;-4.09;62.27;97668.53;6299673;28;19920;-69
2022/12/27 11:21:56;;;;;;;;;;;;;;;-3.96;62.28;97663.44;6299747;28;20304;-68
2022/12/27 11:24:59;;;;;;;;;;;;;;;-4.12;62.64;97673.66;6299803;28;19920;-68
2022/12/27 11:28:04;;;;;;;;;;;;;;;-4.18;62.64;97671.06;6299722;28;20298;-68
2022/12/27 11:31:12;;;;;;;;;;;;;;;-4.25;62.60;97674.44;6299065;28;19927;-68
2022/12/27 11:34:18;;;;;;;;;;;;;;;-4.20;62.68;97674.47;6299102;28;19927;-68
2022/12/27 11:37:23;;;;;;;;;;;;;;;-4.28;62.92;97671.84;6297476;28;19920;-69
2022/12/27 11:40:33;;;;;;;;;;;;;;;-4.24;63.04;97675.31;6299486;28;19920;-69
2022/12/27 11:43:37;;;;;;;;;;;;;;;-4.36;62.75;97669.25;6299107;28;19921;-69
2022/12/27 11:46:40;;;;;;;;;;;;;;;-4.39;63.41;97668.34;6299396;28;19942;-69
2022/12/27 11:49:55;;;;;;;;;;;;;;;-4.36;63.48;97668.38;6299219;28;19920;-68
2022/12/27 11:53:08;;;;;;;;;;;;;;;-4.39;63.24;97673.47;6298958;28;20009;-69
2022/12/27 11:56:29;;;;;;;;;;;;;;;-4.44;63.65;97672.63;6297237;28;20421;-68
2022/12/27 11:59:36;;;;;;;;;;;;;;;-4.43;63.63;97677.75;6297155;28;20042;-69
2022/12/27 12:02:40;;;;;;;;;;;;;;;-4.51;63.59;97667.41;6298736;28;20066;-68
2022/12/27 12:05:53;;;;;;;;;;;;;;;-4.54;63.64;97680.22;6298781;28;19920;-68
2022/12/27 12:09:01;;;;;;;;;;;;;;;-4.42;64.14;97684.59;6298804;28;19920;-68
2022/12/27 12:12:02;;;;;;;;;;;;;;;-4.49;63.80;97677.72;6298740;28;20271;-68
2022/12/27 12:15:26;;;;;;;;;;;;;;;-4.55;64.22;97683.66;6298446;28;19920;-69
2022/12/27 12:18:48;;;;;;;;;;;;;;;-4.58;64.25;97683.63;6298503;28;20010;-68
2022/12/27 12:22:10;;;;;;;;;;;;;;;-4.48;64.29;97683.69;6298299;28;20014;-69
2022/12/27 12:25:34;;;;;;;;;;;;;;;-4.58;64.04;97683.63;6297703;28;19920;-69
2022/12/27 12:29:01;;;;;;;;;;;;;;;-4.58;64.42;97693.91;6298142;28;20374;-69
2022/12/27 12:32:05;;;;;;;;;;;;;;;-4.64;64.48;97688.72;6298359;28;19920;-69
2022/12/27 12:35:26;;;;;;;;;;;;;;;-4.64;64.49;97690.41;6298039;28;19954;-68
2022/12/27 12:38:40;;;;;;;;;;;;;;;-4.70;64.49;97688.66;6297938;28;19927;-69
2022/12/27 12:41:56;;;;;;;;;;;;;;;-4.69;64.75;97695.53;6298069;28;19926;-68
2022/12/27 12:45:36;;;;;;;;;;;;;;;-4.68;64.91;97689.53;6297900;28;20312;-68
2022/12/27 12:48:40;;;;;;;;;;;;;;;-4.67;64.74;97690.41;6223885;28;19929;-69
2022/12/27 12:51:43;;;;;;;;;;;;;;;-4.66;64.79;97687.00;6297722;28;20301;-69
2022/12/27 12:55:00;;;;;;;;;;;;;;;-4.58;64.92;97693.06;6297361;28;19927;-69
2022/12/27 12:58:04;;;;;;;;;;;;;;;-4.58;64.54;97686.22;6297475;28;20382;-68
2022/12/27 13:01:09;;;;;;;;;;;;;;;-4.58;64.96;97687.91;6297394;28;20250;-69
2022/12/27 13:04:31;;;;;;;;;;;;;;;-4.60;65.06;97700.72;6297458;28;19920;-68
2022/12/27 13:07:42;;;;;;;;;;;;;;;-4.44;65.07;97695.75;6297146;28;20061;-68
2022/12/27 13:11:04;;;;;;;;;;;;;;;-4.57;64.67;97689.63;6297042;28;20382;-68
2022/12/27 13:14:26;;;;;;;;;;;;;;;-4.60;64.83;97700.72;6295814;28;20374;-68
2022/12/27 13:18:01;;;;;;;;;;;;;;;-4.47;64.96;97706.84;6297068;28;19920;-68
2022/12/27 13:21:23;;;;;;;;;;;;;;;-4.57;64.67;97713.59;6264176;28;19920;-68
2022/12/27 13:24:45;;;;;;;;;;;;;;;-4.57;65.11;97705.91;6296070;28;20285;-68
2022/12/27 13:27:54;;;;;;;;;;;;;;;-4.54;64.95;97708.47;6296907;28;19920;-68
2022/12/27 13:30:58;;;;;;;;;;;;;;;-4.59;64.86;97710.16;6296491;28;19924;-70
2022/12/27 13:34:02;;;;;;;;;;;;;;;-4.66;65.24;97710.97;6296552;28;20405;-68
2022/12/27 13:37:17;;;;;;;;;;;;;;;-4.63;65.32;97711.00;6296446;28;19928;-68
2022/12/27 13:40:37;;;;;;;;;;;;;;;-4.62;65.51;97712.69;6296443;28;19927;-68
2022/12/27 13:43:55;;;;;;;;;;;;;;;-4.65;65.70;97712.66;6296367;28;19921;-69
2022/12/27 13:47:08;;;;;;;;;;;;;;;-4.61;65.35;97711.00;6296309;28;19916;-69
2022/12/27 13:50:11;;;;;;;;;;;;;;;-4.68;65.38;97712.66;6296518;28;20413;-68
2022/12/27 13:53:32;;;;;;;;;;;;;;;-4.77;65.46;97712.56;6295765;28;19923;-69
2022/12/27 13:56:50;;;;;;;;;;;;;;;-4.82;65.75;97711.66;6295790;28;19920;-69
2022/12/27 14:00:10;;;;;;;;;;;;;;;-4.76;65.75;97714.28;6295934;28;20077;-68
2022/12/27 14:03:40;;;;;;;;;;;;;;;-4.75;65.88;97713.47;6296091;28;20301;-69
2022/12/27 14:07:00;;;;;;;;;;;;;;;-4.66;66.00;97716.09;6296004;28;19920;-69
2022/12/27 14:10:01;;;;;;;;;;;;;;;-4.76;66.25;97720.28;6295402;28;19938;-68
2022/12/27 14:13:05;;;;;;;;;;;;;;;-4.80;65.99;97718.53;6295234;28;19920;-68
2022/12/27 14:16:06;;;;;;;;;;;;;;;-4.75;66.14;97710.88;6295826;28;19916;-69
2022/12/27 14:19:22;;;;;;;;;;;;;;;-4.80;66.29;97715.97;6295181;28;19921;-68
2022/12/27 14:22:32;;;;;;;;;;;;;;;-4.92;66.38;97720.16;6295541;28;19920;-69
2022/12/27 14:25:50;;;;;;;;;;;;;;;-4.90;66.47;97719.28;6296073;28;19923;-69
2022/12/27 14:29:00;;;;;;;;;;;;;;;-4.93;66.42;97718.41;6295780;28;20362;-68
2022/12/27 14:32:10;;;;;;;;;;;;;;;-4.97;66.31;97715.81;6295631;28;20048;-67
2022/12/27 14:35:20;;;;;;;;;;;;;;;-4.88;66.73;97724.44;6295616;28;19989;-68
2022/12/27 14:38:27;;;;;;;;;;;;;;;-4.98;66.46;97716.66;6295394;28;19921;-68
2022/12/27 14:41:48;;;;;;;;;;;;;;;-4.89;66.83;97720.19;6293759;28;19931;-70
2022/12/27 14:45:08;;;;;;;;;;;;;;;-4.95;66.79;97723.53;6295530;28;20023;-69
2022/12/27 14:48:27;;;;;;;;;;;;;;;-5.02;67.06;97727.72;6295212;28;19920;-68
2022/12/27 14:51:53;;;;;;;;;;;;;;;-5.02;66.70;97732.88;6300067;28;19920;-68
2022/12/27 14:55:16;;;;;;;;;;;;;;;-5.02;67.09;97735.44;6293228;28;19920;-68
2022/12/27 14:58:36;;;;;;;;;;;;;;;-4.99;67.14;97730.31;6300266;28;19922;-69
2022/12/27 15:01:46;;;;;;;;;;;;;;;-5.09;67.21;97731.09;6300331;28;20065;-69
2022/12/27 15:05:05;;;;;;;;;;;;;;;-5.08;67.09;97740.50;6300525;28;20412;-69
2022/12/27 15:08:27;;;;;;;;;;;;;;;-4.97;67.48;97736.34;6300511;28;19943;-68
2022/12/27 15:11:28;;;;;;;;;;;;;;;-5.08;66.96;97731.94;6299930;28;19931;-69
2022/12/27 15:14:45;;;;;;;;;;;;;;;-5.08;67.28;97743.06;6299934;28;19921;-68
2022/12/27 15:17:49;;;;;;;;;;;;;;;-5.04;66.80;97738.81;6298986;28;20294;-69
2022/12/27 15:20:56;;;;;;;;;;;;;;;-5.09;67.20;97741.38;6299729;28;19935;-69
2022/12/27 15:24:11;;;;;;;;;;;;;;;-5.08;67.28;97737.94;6299832;28;19920;-68
2022/12/27 15:27:30;;;;;;;;;;;;;;;-5.03;66.77;97736.28;6299601;28;19943;-68
2022/12/27 15:30:52;;;;;;;;;;;;;;;-5.08;67.17;97737.94;6299083;28;19920;-68
2022/12/27 15:33:59;;;;;;;;;;;;;;;-5.10;67.05;97744.75;6297917;28;19966;-68
2022/12/27 15:37:01;;;;;;;;;;;;;;;-5.03;67.01;97743.13;6298740;28;19920;-69
2022/12/27 15:40:21;;;;;;;;;;;;;;;-5.02;67.07;97745.69;6298919;28;20396;-68
2022/12/27 15:43:38;;;;;;;;;;;;;;;-5.08;66.59;97740.50;6299325;28;19966;-69
2022/12/27 15:46:49;;;;;;;;;;;;;;;-5.13;66.63;97739.59;6299330;28;19931;-68
2022/12/27 15:50:14;;;;;;;;;;;;;;;-5.21;66.76;97747.22;6298778;28;19920;-68
2022/12/27 15:53:33;;;;;;;;;;;;;;;-5.20;67.01;97738.66;6298671;28;20409;-69
2022/12/27 15:56:40;;;;;;;;;;;;;;;-5.15;67.09;97745.53;6298057;28;20294;-69
2022/12/27 15:59:47;;;;;;;;;;;;;;;-5.16;67.03;97734.44;6298711;28;19920;-69
2022/12/27 16:02:48;;;;;;;;;;;;;;;-5.19;67.14;97744.66;6298674;28;19921;-69
2022/12/27 16:05:51;;;;;;;;;;;;;;;-5.28;66.71;97750.56;6298084;28;20334;-68
2022/12/27 16:09:13;;;;;;;;;;;;;;;-5.31;67.29;97744.53;6298901;28;20394;-69
2022/12/27 16:12:34;;;;;;;;;;;;;;;-5.27;67.00;97742.00;6298576;28;19928;-68
2022/12/27 16:15:46;;;;;;;;;;;;;;;-5.32;67.19;97742.78;6298294;28;19920;-68
2022/12/27 16:19:08;;;;;;;;;;;;;;;-5.38;67.26;97747.84;6298458;28;19920;-69
2022/12/27 16:22:32;;;;;;;;;;;;;;;-5.42;67.46;97750.38;6297536;28;19920;-69
2022/12/27 16:25:36;;;;;;;;;;;;;;;-5.44;67.46;97740.94;6292828;28;20452;-69
2022/12/27 16:28:37;;;;;;;;;;;;;;;-5.42;67.41;97742.69;6297533;28;19920;-69
2022/12/27 16:31:44;;;;;;;;;;;;;;;-5.46;67.10;97740.94;6298340;28;19942;-71
2022/12/27 16:34:50;;;;;;;;;;;;;;;-5.45;67.08;97746.94;6298238;28;20772;-69
2022/12/27 16:38:02;;;;;;;;;;;;;;;-5.44;67.46;97738.38;6298120;28;19927;-69
2022/12/27 16:41:24;;;;;;;;;;;;;;;-5.49;67.17;97737.47;6297641;28;20313;-68
2022/12/27 16:44:46;;;;;;;;;;;;;;;-5.52;67.48;97743.44;6297878;28;19927;-68
2022/12/27 16:47:55;;;;;;;;;;;;;;;-5.53;67.33;97744.25;6298031;28;19924;-68
2022/12/27 16:51:28;;;;;;;;;;;;;;;-5.56;67.18;97751.06;6297543;28;20039;-69
2022/12/27 16:54:43;;;;;;;;;;;;;;;-5.59;67.71;97751.88;6297831;28;20344;-70
2022/12/27 16:57:48;;;;;;;;;;;;;;;-5.58;67.37;97750.19;6297241;28;20378;-69
2022/12/27 17:00:57;;;;;;;;;;;;;;;-5.58;67.85;97753.59;6297494;28;19959;-69
2022/12/27 17:04:01;;;;;;;;;;;;;;;-5.53;67.58;97748.53;6297264;28;19936;-69
2022/12/27 17:07:05;;;;;;;;;;;;;;;-5.47;67.67;97758.88;6297548;28;20425;-68
2022/12/27 17:10:34;;;;;;;;;;;;;;;-5.47;67.18;97759.72;6296889;28;19927;-68
2022/12/27 17:13:41;;;;;;;;;;;;;;;-5.49;67.37;97763.09;6296706;28;20483;-69
2022/12/27 17:16:47;;;;;;;;;;;;;;;-5.49;67.59;97755.41;6297208;28;20015;-68
2022/12/27 17:20:01;;;;;;;;;;;;;;;-5.43;67.62;97764.06;6296833;28;19920;-70
2022/12/27 17:23:04;;;;;;;;;;;;;;;-5.45;67.38;97755.47;6296477;28;19920;-69
2022/12/27 17:26:24;;;;;;;;;;;;;;;-5.45;67.56;97762.31;6296172;28;20435;-68
2022/12/27 17:29:28;;;;;;;;;;;;;;;-5.46;67.53;97758.03;6296801;28;19920;-69
2022/12/27 17:32:50;;;;;;;;;;;;;;;-5.45;67.51;97757.19;6296671;28;20349;-70
2022/12/27 17:36:11;;;;;;;;;;;;;;;-5.42;67.46;97749.53;6296663;28;19924;-68
2022/12/27 17:39:24;;;;;;;;;;;;;;;-5.44;66.71;97749.50;6295998;28;19920;-69
2022/12/27 17:46:38;;;;;;;;;;;;;;;-5.44;67.27;97749.50;6250967;28;19920;-68
2022/12/27 17:49:39;;;;;;;;;;;;;;;-5.45;67.17;97758.03;6296399;28;20290;-69
2022/12/27 17:59:46;;;;;;;;;;;;;;;-5.40;66.81;97772.66;6296273;28;20293;-68
2022/12/27 18:02:48;;;;;;;;;;;;;;;-5.43;66.55;97764.06;6295454;28;19920;-69
2022/12/27 18:05:56;;;;;;;;;;;;;;;-5.55;66.03;97761.31;6296142;28;20046;-69
2022/12/27 18:09:00;;;;;;;;;;;;;;;-5.61;66.16;97765.53;6296100;28;20407;-69